createdAt,value
2018-06-17T00:00:24.683Z,32.73
2018-06-17T00:03:00.137Z,31.02
2018-06-17T00:05:35.594Z,32.83
2018-06-17T00:08:11.259Z,32.60
2018-06-17T00:10:46.867Z,32.25
2018-06-17T00:13:22.355Z,31.42
2018-06-17T00:15:57.720Z,34.10
2018-06-17T00:18:33.128Z,34.85
2018-06-17T00:21:08.670Z,32.95
2018-06-17T00:23:44.130Z,35.83
2018-06-17T00:26:19.645Z,34.33
2018-06-17T00:28:55.229Z,35.98
2018-06-17T00:31:30.850Z,30.72
2018-06-17T00:34:06.319Z,34.92
2018-06-17T00:36:41.827Z,33.50
2018-06-17T00:39:17.404Z,38.60
2018-06-17T00:41:52.876Z,38.38
2018-06-17T00:44:28.326Z,37.17
2018-06-17T00:47:03.980Z,39.08
2018-06-17T00:49:39.464Z,41.95
2018-06-17T00:52:14.992Z,37.83
2018-06-17T00:54:50.419Z,41.92
2018-06-17T00:57:36.948Z,40.10
2018-06-17T01:00:12.373Z,42.30
2018-06-17T01:02:47.923Z,42.93
2018-06-17T01:05:23.444Z,44.33
2018-06-17T01:07:59.067Z,45.52
2018-06-17T01:10:34.079Z,43.83
2018-06-17T01:13:09.428Z,45.10
2018-06-17T01:15:44.937Z,44.98
2018-06-17T01:18:20.527Z,48.87
2018-06-17T01:20:56.212Z,47.03
2018-06-17T01:23:31.901Z,49.08
2018-06-17T01:26:09.194Z,47.58
2018-06-17T01:28:44.831Z,49.63
2018-06-17T01:31:20.386Z,50.55
2018-06-17T01:33:55.938Z,48.55
2018-06-17T01:36:31.437Z,46.37
2018-06-17T01:39:08.115Z,49.75
2018-06-17T01:41:43.716Z,47.43
2018-06-17T01:44:19.186Z,46.90
2018-06-17T01:46:54.763Z,48.45
2018-06-17T01:49:30.353Z,46.77
2018-06-17T01:52:05.880Z,46.75
2018-06-17T01:54:41.335Z,45.10
2018-06-17T01:57:16.788Z,46.20
2018-06-17T01:59:52.359Z,42.05
2018-06-17T02:02:27.988Z,43.10
2018-06-17T02:05:08.651Z,44.53
2018-06-17T02:07:49.648Z,42.53
2018-06-17T02:10:30.502Z,45.03
2018-06-17T02:13:06.051Z,39.48
2018-06-17T02:15:41.488Z,43.52
2018-06-17T02:18:17.073Z,44.20
2018-06-17T02:20:52.567Z,40.98
2018-06-17T02:23:28.072Z,44.20
2018-06-17T02:26:03.661Z,47.20
2018-06-17T02:28:39.169Z,41.42
2018-06-17T02:31:14.713Z,42.70
2018-06-17T02:33:50.308Z,43.35
2018-06-17T02:36:25.521Z,40.40
2018-06-17T02:39:00.978Z,40.43
2018-06-17T02:41:36.955Z,41.60
2018-06-17T02:44:12.040Z,41.88
2018-06-17T02:46:52.636Z,41.45
2018-06-17T02:49:33.440Z,40.75
2018-06-17T02:52:14.508Z,38.70
2018-06-17T02:54:49.796Z,43.23
2018-06-17T02:57:25.126Z,36.55
2018-06-17T03:00:00.677Z,37.58
2018-06-17T03:02:36.259Z,37.65
2018-06-17T03:05:11.688Z,34.80
2018-06-17T03:07:47.246Z,40.10
2018-06-17T03:10:22.747Z,38.58
2018-06-17T03:12:58.324Z,37.17
2018-06-17T03:15:34.532Z,36.70
2018-06-17T03:18:10.164Z,40.48
2018-06-17T03:20:45.616Z,41.00
2018-06-17T03:23:21.113Z,44.50
2018-06-17T03:26:01.854Z,42.23
2018-06-17T03:28:42.681Z,38.38
2018-06-17T03:31:19.405Z,41.95
2018-06-17T03:33:56.417Z,40.03
2018-06-17T03:36:31.965Z,41.92
2018-06-17T03:39:07.708Z,40.33
2018-06-17T03:41:43.112Z,42.30
2018-06-17T03:44:18.665Z,40.63
2018-06-17T03:46:54.145Z,42.08
2018-06-17T03:49:30.191Z,44.55
2018-06-17T03:52:05.649Z,45.70
2018-06-17T03:54:41.190Z,42.03
2018-06-17T03:57:16.580Z,42.25
2018-06-17T03:59:52.060Z,40.10
2018-06-17T04:02:27.623Z,36.40
2018-06-17T04:05:08.710Z,40.73
2018-06-17T04:07:44.280Z,41.98
2018-06-17T04:10:19.895Z,43.98
2018-06-17T04:12:55.479Z,41.83
2018-06-17T04:15:30.910Z,39.45
2018-06-17T04:18:07.668Z,43.08
2018-06-17T04:20:43.272Z,38.95
2018-06-17T04:23:18.811Z,43.00
2018-06-17T04:25:54.271Z,42.38
2018-06-17T04:28:29.500Z,39.65
2018-06-17T04:31:04.953Z,39.15
2018-06-17T04:33:40.409Z,37.85
2018-06-17T04:36:15.864Z,41.65
2018-06-17T04:38:51.451Z,38.90
2018-06-17T04:41:26.727Z,42.00
2018-06-17T04:44:02.157Z,39.10
2018-06-17T04:46:37.420Z,38.08
2018-06-17T04:49:12.845Z,36.60
2018-06-17T04:51:48.295Z,37.93
2018-06-17T04:54:23.768Z,35.13
2018-06-17T04:56:59.361Z,34.98
2018-06-17T04:59:35.000Z,34.00
2018-06-17T05:02:10.418Z,37.70
2018-06-17T05:04:46.015Z,35.10
2018-06-17T05:07:21.581Z,34.38
2018-06-17T05:09:57.195Z,35.88
2018-06-17T05:12:32.740Z,31.57
2018-06-17T05:15:08.410Z,31.30
2018-06-17T05:17:43.859Z,27.42
2018-06-17T05:20:19.493Z,27.20
2018-06-17T05:22:54.929Z,27.00
2018-06-17T05:25:31.082Z,25.30
2018-06-17T05:28:07.416Z,25.10
2018-06-17T05:30:42.868Z,22.03
2018-06-17T05:33:18.408Z,20.90
2018-06-17T05:35:53.811Z,22.20
2018-06-17T05:38:30.004Z,21.63
2018-06-17T05:41:05.553Z,21.17
2018-06-17T05:43:41.084Z,20.70
2018-06-17T05:46:16.840Z,18.20
2018-06-17T05:48:52.444Z,16.57
2018-06-17T05:51:27.868Z,15.90
2018-06-17T05:54:03.422Z,15.90
2018-06-17T05:56:39.134Z,13.83
2018-06-17T05:59:14.584Z,13.53
2018-06-17T06:01:50.210Z,14.10
2018-06-17T06:04:25.801Z,13.60
2018-06-17T06:07:01.205Z,11.50
2018-06-17T06:09:36.580Z,12.57
2018-06-17T06:12:14.078Z,12.00
2018-06-17T06:14:49.564Z,10.93
2018-06-17T06:17:25.029Z,13.00
2018-06-17T06:20:00.585Z,11.00
2018-06-17T06:22:36.136Z,12.00
2018-06-17T06:25:11.740Z,12.27
2018-06-17T06:27:47.228Z,11.93
2018-06-17T06:30:22.775Z,11.93
2018-06-17T06:32:58.167Z,12.00
2018-06-17T06:35:33.658Z,11.57
2018-06-17T06:38:09.335Z,11.97
2018-06-17T06:40:44.961Z,10.47
2018-06-17T06:43:20.742Z,10.73
2018-06-17T06:45:56.283Z,9.60
2018-06-17T06:48:31.765Z,11.27
2018-06-17T06:51:07.369Z,10.20
2018-06-17T06:53:42.536Z,10.63
2018-06-17T06:56:18.039Z,10.80
2018-06-17T06:58:53.729Z,8.73
2018-06-17T07:01:40.453Z,9.37
2018-06-17T07:04:26.973Z,8.37
2018-06-17T07:07:13.577Z,8.67
2018-06-17T07:10:51.740Z,7.50
2018-06-17T07:13:27.385Z,5.83
2018-06-17T07:16:16.022Z,5.27
2018-06-17T07:18:51.529Z,4.93
2018-06-17T07:21:26.705Z,5.17
2018-06-17T07:24:01.940Z,5.60
2018-06-17T07:26:52.641Z,5.80
2018-06-17T07:29:42.573Z,4.33
2018-06-17T07:32:17.893Z,4.47
2018-06-17T07:34:53.225Z,5.20
2018-06-17T07:37:28.170Z,3.73
2018-06-17T07:41:05.756Z,4.20
2018-06-17T07:43:41.108Z,4.50
2018-06-17T07:46:25.710Z,4.07
2018-06-17T07:49:45.101Z,4.77
2018-06-17T07:52:26.779Z,3.87
2018-06-17T07:55:03.088Z,4.10
2018-06-17T07:57:38.588Z,4.77
2018-06-17T08:00:21.201Z,4.40
2018-06-17T08:02:56.551Z,4.70
2018-06-17T08:05:31.887Z,4.10
2018-06-17T08:08:07.163Z,4.70
2018-06-17T08:10:42.505Z,4.77
2018-06-17T08:13:18.589Z,4.97
2018-06-17T08:15:53.916Z,5.47
2018-06-17T08:18:29.317Z,5.20
2018-06-17T08:21:05.548Z,6.00
2018-06-17T08:23:40.754Z,5.50
2018-06-17T08:26:15.941Z,6.57
2018-06-17T08:28:51.162Z,4.20
2018-06-17T08:31:26.397Z,4.10
2018-06-17T08:34:01.808Z,4.07
2018-06-17T08:36:37.370Z,4.10
2018-06-17T08:39:13.994Z,4.17
2018-06-17T08:41:49.249Z,4.40
2018-06-17T08:44:25.135Z,4.63
2018-06-17T08:47:00.509Z,4.63
2018-06-17T08:49:35.921Z,4.00
2018-06-17T08:52:11.371Z,4.33
2018-06-17T08:54:46.757Z,4.53
2018-06-17T08:57:22.164Z,4.90
2018-06-17T08:59:57.604Z,4.87
2018-06-17T09:02:32.856Z,4.53
2018-06-17T09:05:08.251Z,4.40
2018-06-17T09:07:43.614Z,4.30
2018-06-17T09:10:18.925Z,4.00
2018-06-17T09:12:54.265Z,4.10
2018-06-17T09:15:29.501Z,3.43
2018-06-17T09:18:05.521Z,3.27
2018-06-17T09:20:40.920Z,3.70
2018-06-17T09:23:16.266Z,3.67
2018-06-17T09:25:51.523Z,3.40
2018-06-17T09:28:27.352Z,4.40
2018-06-17T09:31:02.682Z,4.30
2018-06-17T09:33:38.009Z,3.90
2018-06-17T09:36:13.381Z,4.00
2018-06-17T09:38:48.752Z,3.53
2018-06-17T09:41:24.000Z,3.63
2018-06-17T09:44:18.562Z,3.90
2018-06-17T09:46:53.584Z,3.97
2018-06-17T09:49:28.756Z,3.67
2018-06-17T09:52:04.335Z,3.80
2018-06-17T09:54:39.877Z,3.23
2018-06-17T09:57:15.053Z,3.20
2018-06-17T09:59:50.375Z,3.07
2018-06-17T10:02:25.643Z,3.07
2018-06-17T10:05:01.236Z,4.17
2018-06-17T10:07:36.577Z,3.07
2018-06-17T10:10:50.152Z,3.47
2018-06-17T10:13:26.973Z,4.30
2018-06-17T10:16:02.629Z,3.50
2018-06-17T10:18:38.065Z,3.07
2018-06-17T10:21:13.655Z,5.90
2018-06-17T10:23:49.030Z,3.67
2018-06-17T10:26:24.162Z,3.00
2018-06-17T10:28:59.645Z,3.60
2018-06-17T10:31:35.053Z,3.97
2018-06-17T10:34:10.528Z,4.30
2018-06-17T10:36:46.047Z,3.73
2018-06-17T10:39:21.624Z,4.87
2018-06-17T10:41:56.732Z,4.70
2018-06-17T10:44:32.200Z,5.40
2018-06-17T10:47:07.891Z,4.50
2018-06-17T10:49:42.975Z,4.67
2018-06-17T10:52:18.544Z,5.30
2018-06-17T10:54:54.038Z,5.00
2018-06-17T10:57:29.631Z,4.37
2018-06-17T11:03:34.090Z,5.53
2018-06-17T11:06:09.612Z,5.17
2018-06-17T11:08:45.295Z,5.17
2018-06-17T11:11:20.834Z,5.47
2018-06-17T11:13:56.386Z,5.00
2018-06-17T11:16:31.994Z,4.43
2018-06-17T11:19:07.402Z,4.00
2018-06-17T11:21:42.750Z,4.77
2018-06-17T11:24:18.240Z,5.50
2018-06-17T11:26:54.054Z,5.17
2018-06-17T11:29:29.939Z,4.43
2018-06-17T11:32:05.316Z,4.40
2018-06-17T11:34:40.661Z,4.47
2018-06-17T11:37:16.257Z,4.27
2018-06-17T11:39:51.848Z,4.43
2018-06-17T11:42:27.875Z,4.80
2018-06-17T11:45:03.478Z,5.00
2018-06-17T11:47:38.977Z,5.17
2018-06-17T11:50:14.514Z,4.87
2018-06-17T11:52:49.677Z,9.87
2018-06-17T11:55:25.012Z,9.10
2018-06-17T11:58:00.700Z,9.77
2018-06-17T12:00:36.341Z,11.00
2018-06-17T12:03:11.963Z,9.60
2018-06-17T12:05:47.629Z,9.33
2018-06-17T12:08:23.241Z,9.87
2018-06-17T12:20:17.371Z,6.27
2018-06-17T12:23:11.784Z,6.20
2018-06-17T12:25:47.793Z,6.33
2018-06-17T12:28:24.163Z,6.13
2018-06-17T12:30:59.836Z,6.47
2018-06-17T12:33:35.462Z,7.63
2018-06-17T12:36:11.780Z,8.83
2018-06-17T12:38:47.207Z,9.30
2018-06-17T12:41:22.695Z,11.50
2018-06-17T12:43:58.677Z,10.67
2018-06-17T12:46:34.393Z,12.10
2018-06-17T12:49:09.943Z,11.75
2018-06-17T12:54:47.057Z,12.82
2018-06-17T12:57:23.026Z,14.05
2018-06-17T12:59:58.716Z,12.03
2018-06-17T13:02:34.227Z,13.50
2018-06-17T13:05:09.754Z,13.18
2018-06-17T13:07:46.754Z,12.60
2018-06-17T13:10:21.889Z,14.28
2018-06-17T13:12:57.189Z,14.38
2018-06-17T13:15:32.746Z,15.30
2018-06-17T13:18:08.529Z,13.25
2018-06-17T13:20:44.313Z,12.50
2018-06-17T13:23:19.957Z,12.95
2018-06-17T13:25:55.416Z,15.08
2018-06-17T13:28:31.058Z,14.70
2018-06-17T13:31:06.779Z,14.20
2018-06-17T13:33:42.363Z,13.08
2018-06-17T13:36:17.925Z,12.93
2018-06-17T13:38:53.871Z,12.18
2018-06-17T13:41:29.074Z,13.32
2018-06-17T13:44:04.742Z,12.13
2018-06-17T13:46:39.913Z,12.00
2018-06-17T13:49:15.285Z,12.37
2018-06-17T13:51:50.860Z,11.80
2018-06-17T13:54:26.322Z,10.07
2018-06-17T13:57:03.124Z,7.43
2018-06-17T13:59:38.653Z,5.90
2018-06-17T14:02:14.212Z,6.17
2018-06-17T14:04:49.675Z,5.97
2018-06-17T14:07:25.252Z,5.37
2018-06-17T14:10:00.737Z,5.17
2018-06-17T14:12:36.288Z,4.70
2018-06-17T14:15:11.848Z,3.80
2018-06-17T14:17:47.296Z,2.97
2018-06-17T14:20:22.827Z,3.33
2018-06-17T14:22:58.288Z,2.97
2018-06-17T14:25:33.862Z,2.80
2018-06-17T14:28:09.408Z,2.90
2018-06-17T14:30:44.563Z,2.83
2018-06-17T14:33:20.012Z,2.30
2018-06-17T14:35:55.557Z,2.17
2018-06-17T14:38:31.080Z,2.40
2018-06-17T14:41:12.209Z,1.93
2018-06-17T14:43:53.253Z,2.10
2018-06-17T14:46:33.766Z,2.00
2018-06-17T14:49:14.563Z,2.00
2018-06-17T14:51:55.402Z,1.67
2018-06-17T14:54:30.975Z,1.77
2018-06-17T14:57:06.589Z,2.17
2018-06-17T14:59:42.177Z,1.40
2018-06-17T15:02:17.638Z,1.60
2018-06-17T15:04:53.220Z,1.60
2018-06-17T15:07:28.822Z,1.30
2018-06-17T15:10:04.655Z,2.30
2018-06-17T15:12:40.339Z,1.60
2018-06-17T15:15:15.758Z,1.70
2018-06-17T15:17:51.292Z,1.93
2018-06-17T15:20:26.873Z,1.53
2018-06-17T15:23:02.492Z,2.37
2018-06-17T15:25:38.069Z,1.60
2018-06-17T15:28:13.541Z,1.60
2018-06-17T15:30:50.593Z,1.70
2018-06-17T15:33:32.915Z,1.60
2018-06-17T15:36:13.858Z,2.00
2018-06-17T15:38:52.947Z,1.50
2018-06-17T15:41:29.116Z,1.73
2018-06-17T15:44:04.608Z,1.70
2018-06-17T15:46:40.019Z,2.07
2018-06-17T15:49:15.600Z,3.83
2018-06-17T15:51:51.013Z,26.63
2018-06-17T15:54:26.556Z,4.80
2018-06-17T15:57:02.191Z,3.30
2018-06-17T15:59:37.540Z,2.90
2018-06-17T16:02:13.128Z,2.10
2018-06-17T16:04:48.596Z,1.87
2018-06-17T16:07:24.141Z,1.70
2018-06-17T16:09:59.756Z,2.20
2018-06-17T16:12:40.695Z,2.20
2018-06-17T16:15:21.378Z,1.90
2018-06-17T16:18:02.289Z,2.23
2018-06-17T16:20:43.007Z,3.03
2018-06-17T16:23:18.716Z,1.80
2018-06-17T16:25:54.243Z,2.00
2018-06-17T16:28:29.787Z,1.83
2018-06-17T16:31:05.028Z,2.53
2018-06-17T16:33:40.461Z,9.13
2018-06-17T16:36:15.540Z,2.40
2018-06-17T16:38:50.931Z,2.00
2018-06-17T16:41:26.405Z,2.47
2018-06-17T16:44:01.913Z,1.70
2018-06-17T16:46:37.345Z,2.13
2018-06-17T16:49:12.623Z,4.13
2018-06-17T16:51:53.157Z,1.40
2018-06-17T16:56:36.854Z,2.00
2018-06-17T16:59:17.617Z,4.60
2018-06-17T17:01:53.465Z,2.03
2018-06-17T17:04:29.020Z,9.20
2018-06-17T17:07:04.301Z,1.80
2018-06-17T17:09:40.088Z,1.50
2018-06-17T17:12:15.642Z,2.17
2018-06-17T17:14:51.078Z,2.40
2018-06-17T17:17:26.507Z,2.30
2018-06-17T17:20:01.932Z,2.30
2018-06-17T17:22:37.472Z,1.63
2018-06-17T17:25:13.013Z,2.30
2018-06-17T17:27:48.461Z,2.20
2018-06-17T17:30:24.038Z,2.63
2018-06-17T17:33:04.549Z,1.57
2018-06-17T17:35:45.224Z,1.83
2018-06-17T17:38:25.883Z,1.63
2018-06-17T17:41:03.144Z,2.00
2018-06-17T17:43:38.568Z,2.07
2018-06-17T17:46:19.293Z,1.77
2018-06-17T17:48:54.756Z,2.30
2018-06-17T17:51:30.318Z,2.10
2018-06-17T17:54:06.641Z,2.20
2018-06-17T17:56:42.127Z,2.30
2018-06-17T17:59:17.561Z,2.13
2018-06-17T18:01:52.969Z,2.40
2018-06-17T18:04:28.625Z,2.50
2018-06-17T18:07:04.061Z,2.40
2018-06-17T18:09:39.496Z,2.47
2018-06-17T18:12:14.939Z,2.17
2018-06-17T18:14:50.654Z,2.50
2018-06-17T18:17:26.149Z,15.20
2018-06-17T18:20:01.767Z,7.67
2018-06-17T18:22:37.188Z,2.77
2018-06-17T18:25:17.925Z,4.93
2018-06-17T18:27:58.725Z,2.47
2018-06-17T18:30:39.317Z,2.20
2018-06-17T18:33:20.189Z,2.40
2018-06-17T18:36:01.256Z,2.10
2018-06-17T18:38:37.804Z,2.37
2018-06-17T18:41:14.209Z,13.05
2018-06-17T18:43:49.464Z,5.67
2018-06-17T18:46:24.990Z,2.83
2018-06-17T18:49:00.436Z,2.42
2018-06-17T18:51:35.950Z,2.70
2018-06-17T18:54:11.510Z,2.22
2018-06-17T18:56:47.057Z,2.12
2018-06-17T18:59:22.446Z,2.47
2018-06-17T19:01:57.860Z,3.77
2018-06-17T19:04:33.497Z,2.73
2018-06-17T19:07:09.104Z,2.50
2018-06-17T19:09:49.824Z,3.35
2018-06-17T19:12:30.617Z,2.72
2018-06-17T19:15:11.575Z,2.20
2018-06-17T19:17:52.432Z,3.00
2018-06-17T19:20:28.011Z,2.22
2018-06-17T19:23:03.433Z,2.50
2018-06-17T19:25:39.096Z,2.10
2018-06-17T19:28:14.671Z,3.27
2018-06-17T19:30:49.975Z,2.20
2018-06-17T19:33:25.365Z,2.95
2018-06-17T19:36:00.767Z,2.40
2018-06-17T19:38:36.224Z,2.70
2018-06-17T19:41:11.853Z,2.98
2018-06-17T19:43:47.453Z,3.02
2018-06-17T19:46:22.832Z,2.45
2018-06-17T19:48:58.224Z,4.08
2018-06-17T19:51:39.333Z,2.60
2018-06-17T19:56:27.042Z,3.15
2018-06-17T19:59:07.729Z,3.02
2018-06-17T20:01:42.926Z,3.40
2018-06-17T20:04:18.341Z,2.70
2018-06-17T20:06:53.533Z,3.17
2018-06-17T20:09:28.984Z,2.80
2018-06-17T20:12:04.510Z,2.60
2018-06-17T20:14:40.045Z,2.55
2018-06-17T20:17:15.574Z,3.65
2018-06-17T20:19:50.997Z,3.17
2018-06-17T20:22:26.473Z,2.95
2018-06-17T20:25:02.029Z,3.90
2018-06-17T20:27:37.499Z,2.98
2018-06-17T20:30:12.943Z,2.75
2018-06-17T20:32:53.544Z,3.20
2018-06-17T20:35:34.007Z,3.17
2018-06-17T20:38:14.565Z,2.80
2018-06-17T20:40:55.081Z,2.90
2018-06-17T20:43:35.769Z,3.00
2018-06-17T20:46:11.324Z,3.85
2018-06-17T20:48:47.683Z,2.30
2018-06-17T20:51:23.148Z,3.40
2018-06-17T20:53:58.629Z,3.92
2018-06-17T20:56:34.157Z,2.70
2018-06-17T20:59:09.548Z,3.45
2018-06-17T21:01:44.913Z,2.67
2018-06-17T21:04:20.305Z,4.33
2018-06-17T21:06:55.720Z,2.70
2018-06-17T21:09:31.085Z,3.37
2018-06-17T21:12:06.853Z,3.00
2018-06-17T21:14:42.384Z,3.62
2018-06-17T21:17:17.581Z,3.80
2018-06-17T21:19:58.160Z,3.35
2018-06-17T21:22:38.768Z,3.70
2018-06-17T21:25:19.108Z,3.70
2018-06-17T21:27:56.660Z,3.67
2018-06-17T21:30:32.144Z,3.30
2018-06-17T21:33:07.549Z,3.33
2018-06-17T21:35:42.978Z,3.35
2018-06-17T21:38:18.508Z,3.05
2018-06-17T21:40:54.154Z,4.10
2018-06-17T21:43:29.559Z,4.80
2018-06-17T21:46:05.080Z,3.65
2018-06-17T21:48:41.571Z,3.62
2018-06-17T21:51:17.252Z,4.20
2018-06-17T21:53:53.699Z,4.70
2018-06-17T21:56:29.095Z,4.70
2018-06-17T21:59:04.805Z,4.83
2018-06-17T22:01:40.350Z,4.65
2018-06-17T22:04:21.244Z,4.30
2018-06-17T22:06:56.803Z,4.25
2018-06-17T22:09:37.482Z,4.80
2018-06-17T22:12:18.224Z,4.47
2018-06-17T22:14:59.059Z,4.40
2018-06-17T22:17:39.772Z,4.03
2018-06-17T22:20:15.268Z,4.37
2018-06-17T22:22:50.630Z,5.20
2018-06-17T22:25:26.083Z,4.67
2018-06-17T22:28:01.776Z,4.58
2018-06-17T22:30:37.203Z,5.40
2018-06-17T22:33:12.319Z,5.20
2018-06-17T22:35:47.743Z,4.83
2018-06-17T22:38:23.183Z,6.60
2018-06-17T22:40:58.740Z,5.10
2018-06-17T22:43:34.388Z,5.92
2018-06-17T22:46:10.024Z,5.40
2018-06-17T22:48:45.557Z,5.58
2018-06-17T22:51:20.640Z,6.25
2018-06-17T22:54:01.203Z,5.50
2018-06-17T22:56:41.504Z,5.72
2018-06-17T22:59:22.177Z,6.85
2018-06-17T23:02:02.972Z,5.78
2018-06-17T23:06:48.741Z,5.78
2018-06-17T23:09:29.565Z,6.17
2018-06-17T23:12:05.048Z,5.83
2018-06-17T23:14:40.610Z,6.03
2018-06-17T23:17:16.428Z,5.62
2018-06-17T23:19:51.820Z,5.55
2018-06-17T23:22:27.350Z,6.20
2018-06-17T23:25:02.868Z,5.53
2018-06-17T23:27:38.236Z,6.05
2018-06-17T23:30:13.812Z,7.03
2018-06-17T23:32:49.203Z,6.17
2018-06-17T23:35:24.588Z,7.03
2018-06-17T23:37:59.641Z,6.58
2018-06-17T23:40:35.029Z,6.60
2018-06-17T23:43:10.542Z,6.30
2018-06-17T23:45:51.407Z,6.05
2018-06-17T23:48:32.276Z,6.20
2018-06-17T23:51:13.021Z,6.42
2018-06-17T23:53:53.879Z,6.70
2018-06-17T23:56:29.472Z,6.40
2018-06-17T23:59:05.009Z,6.17
